Time;durP1;ratioP1;P1;durP2;ratioP2;P2;SDS_P1;SDS_P2;PMS_P1;PMS_P2;Temp;Humidity;BMP_temperature;BMP_pressure;BME280_temperature;BME280_humidity;BME280_pressure;Samples;Min_cycle;Max_cycle;Signal;HPM_P1;HPM_P2
2021/09/03 00:00:17;;;;;;;35.80;14.27;;;11.90;99.90;;;10.59;100.00;102410.94;5051750;28;20044;-75
2021/09/03 00:02:44;;;;;;;42.70;13.85;;;11.80;99.90;;;10.55;100.00;102403.97;5041087;28;20052;-75
2021/09/03 00:05:18;;;;;;;36.60;15.05;;;11.80;99.90;;;10.50;100.00;102398.81;5040659;28;20062;-75
2021/09/03 00:07:45;;;;;;;34.20;12.48;;;11.80;99.90;;;10.44;100.00;102386.63;5048795;28;20081;-75
2021/09/03 00:10:15;;;;;;;35.00;13.32;;;11.70;99.90;;;10.36;100.00;102380.63;5049129;28;20016;-74
2021/09/03 00:12:43;;;;;;;29.42;12.88;;;11.60;99.90;;;10.29;100.00;102376.38;5041382;28;20403;-75
2021/09/03 00:15:13;;;;;;;30.58;13.35;;;11.60;99.90;;;10.23;100.00;102365.94;5050193;28;20078;-74
2021/09/03 00:17:40;;;;;;;34.88;13.38;;;11.50;99.90;;;10.18;100.00;102355.50;5048892;28;20048;-75
2021/09/03 00:20:11;;;;;;;27.23;12.10;;;11.50;99.90;;;10.18;100.00;102365.16;5048937;28;20074;-75
2021/09/03 00:22:37;;;;;;;30.02;12.07;;;11.50;99.90;;;10.14;100.00;102355.59;5016425;28;20060;-74
2021/09/03 00:25:05;;;;;;;32.42;12.63;;;11.40;99.90;;;10.13;100.00;102354.72;5049321;28;20024;-75
2021/09/03 00:27:31;;;;;;;31.67;12.27;;;11.40;99.90;;;10.09;100.00;102350.41;5040810;28;20055;-74
2021/09/03 00:29:57;;;;;;;23.52;11.18;;;11.40;99.90;;;10.02;100.00;102340.88;5028668;28;20512;-75
2021/09/03 00:32:23;;;;;;;22.30;10.95;;;11.30;99.90;;;9.97;100.00;102338.31;5050233;28;20025;-75
2021/09/03 00:34:49;;;;;;;39.60;14.20;;;11.30;99.90;;;9.99;100.00;102333.03;5040301;28;20129;-74
2021/09/03 00:37:16;;;;;;;33.38;13.00;;;11.30;99.90;;;9.95;100.00;102341.88;5041535;28;20062;-75
2021/09/03 00:39:41;;;;;;;37.83;13.30;;;11.30;99.90;;;9.92;100.00;102332.28;5049176;28;20203;-75
2021/09/03 00:42:12;;;;;;;32.55;13.85;;;11.20;99.90;;;9.90;100.00;102331.44;5040550;28;20083;-75
2021/09/03 00:44:39;;;;;;;50.83;14.70;;;11.20;99.90;;;9.92;100.00;102326.16;5040463;28;20068;-74
2021/09/03 00:47:05;;;;;;;40.65;14.65;;;11.30;99.90;;;9.92;100.00;102340.19;5038396;28;20070;-75
2021/09/03 00:49:31;;;;;;;38.33;14.85;;;11.30;99.90;;;9.92;100.00;102342.81;5041775;28;20423;-75
2021/09/03 00:52:00;;;;;;;38.08;15.63;;;11.20;99.90;;;9.94;100.00;102337.53;5037323;28;20074;-75
2021/09/03 00:54:26;;;;;;;39.22;15.50;;;11.20;99.90;;;9.91;100.00;102335.81;5040449;28;20125;-75
2021/09/03 00:56:52;;;;;;;43.67;15.48;;;11.20;99.90;;;9.89;100.00;102329.69;5048529;28;20166;-76
2021/09/03 00:59:18;;;;;;;41.08;15.43;;;11.20;99.90;;;9.88;100.00;102319.22;5047334;28;20074;-75
2021/09/03 01:01:44;;;;;;;48.47;17.10;;;11.20;99.90;;;9.87;100.00;102318.38;5047513;28;20072;-74
2021/09/03 01:04:10;;;;;;;42.72;15.60;;;11.20;99.90;;;9.83;100.00;102312.28;5053000;28;20036;-75
2021/09/03 01:06:36;;;;;;;53.10;17.33;;;11.10;99.90;;;9.82;100.00;102355.25;5051223;28;20059;-75
2021/09/03 01:09:03;;;;;;;52.33;17.45;;;11.10;99.90;;;9.78;100.00;102340.44;5059288;28;20067;-75
2021/09/03 01:11:29;;;;;;;43.92;15.77;;;11.10;99.90;;;9.74;100.00;102335.22;5062572;28;20072;-75
2021/09/03 01:13:55;;;;;;;41.63;15.80;;;;;;;9.63;100.00;102336.31;5045482;28;20115;-75
2021/09/03 01:16:22;;;;;;;46.25;17.20;;;11.00;99.90;;;9.60;100.00;102354.75;5054165;28;20060;-75
2021/09/03 01:18:49;;;;;;;52.92;17.35;;;11.00;99.90;;;9.61;100.00;102343.34;5037004;28;20033;-75
2021/09/03 01:21:15;;;;;;;46.67;17.13;;;10.90;99.90;;;9.60;100.00;102331.09;5053437;28;20075;-75
2021/09/03 01:23:41;;;;;;;51.70;17.98;;;10.90;99.90;;;9.59;100.00;102334.63;5050951;28;20135;-74
2021/09/03 01:26:07;;;;;;;48.88;17.98;;;10.90;99.90;;;9.56;100.00;102313.63;5054169;28;20058;-74
2021/09/03 01:28:34;;;;;;;50.78;18.05;;;10.90;99.90;;;9.54;100.00;102309.28;5033498;28;20075;-75
2021/09/03 01:31:00;;;;;;;60.65;18.92;;;10.90;99.90;;;9.52;100.00;102301.41;5045932;28;20017;-75
2021/09/03 01:33:26;;;;;;;49.70;17.70;;;10.90;99.90;;;9.49;100.00;102295.34;5034898;28;20090;-75
2021/09/03 01:35:52;;;;;;;46.42;18.52;;;10.80;99.90;;;9.50;100.00;102297.94;5060517;28;20067;-75
2021/09/03 01:38:18;;;;;;;56.88;20.85;;;10.80;99.90;;;9.48;100.00;102328.69;5044299;28;20533;-75
2021/09/03 01:40:44;;;;;;;56.75;19.38;;;10.80;99.90;;;9.47;100.00;102326.94;5027453;28;20544;-75
2021/09/03 01:43:11;;;;;;;61.15;20.83;;;10.80;99.90;;;9.52;100.00;102547.75;5044500;28;20477;-75
2021/09/03 01:45:37;;;;;;;62.92;21.70;;;10.90;99.90;;;9.68;100.00;102594.00;5041830;28;20512;-75
2021/09/03 01:48:04;;;;;;;66.18;22.02;;;11.10;99.90;;;9.81;100.00;102507.88;5054933;28;20024;-74
2021/09/03 01:50:32;;;;;;;62.83;21.40;;;11.20;99.90;;;9.85;100.00;102426.25;5043843;28;20051;-75
2021/09/03 01:52:58;;;;;;;70.38;24.20;;;11.20;99.90;;;9.84;100.00;102407.84;5043066;28;20436;-75
2021/09/03 01:55:24;;;;;;;54.38;20.85;;;11.10;99.90;;;9.77;100.00;102408.84;5054926;28;20088;-75
2021/09/03 01:57:50;;;;;;;66.68;20.55;;;11.00;99.90;;;9.63;100.00;102382.75;5049904;28;20090;-75
2021/09/03 02:00:17;;;;;;;54.60;20.38;;;10.90;99.90;;;9.53;100.00;102368.91;5036426;28;20071;-75
2021/09/03 02:02:43;;;;;;;65.43;20.50;;;10.80;99.90;;;9.46;100.00;102356.75;5052396;28;20064;-75
2021/09/03 02:05:10;;;;;;;58.45;20.17;;;10.80;99.90;;;9.39;100.00;102327.03;5044548;28;20059;-75
2021/09/03 02:07:37;;;;;;;53.35;19.38;;;10.70;99.90;;;9.40;100.00;102330.56;5051005;28;20082;-75
2021/09/03 02:10:06;;;;;;;60.58;20.60;;;10.70;99.90;;;9.35;100.00;102319.22;5044675;28;20107;-75
2021/09/03 02:12:32;;;;;;;53.05;20.85;;;10.70;99.90;;;9.36;100.00;102305.22;5026399;28;20124;-75
2021/09/03 02:14:58;;;;;;;65.72;21.80;;;10.80;99.90;;;9.40;100.00;102306.91;5050210;28;20025;-75
2021/09/03 02:17:24;;;;;;;70.80;21.60;;;10.80;99.90;;;9.47;100.00;102311.16;5051797;28;20541;-75
2021/09/03 02:19:52;;;;;;;75.97;24.73;;;10.90;99.90;;;9.68;100.00;102322.22;5049365;28;20085;-75
2021/09/03 02:22:18;;;;;;;84.40;24.63;;;11.20;99.90;;;9.86;100.00;102343.78;5051168;28;20099;-75
2021/09/03 02:24:44;;;;;;;78.53;24.90;;;11.30;99.90;;;9.93;100.00;102339.28;5051373;28;20048;-75
2021/09/03 02:27:10;;;;;;;83.13;26.15;;;11.30;99.90;;;9.96;100.00;102331.34;5035014;28;20427;-75
2021/09/03 02:29:36;;;;;;;98.20;27.23;;;11.30;99.90;;;10.01;100.00;102332.13;5050076;28;20069;-75
2021/09/03 02:32:04;;;;;;;95.78;26.92;;;11.30;99.90;;;10.01;100.00;102337.38;5060920;28;20407;-75
2021/09/03 02:34:30;;;;;;;84.10;25.00;;;11.30;99.90;;;9.98;100.00;102326.91;5028394;28;20055;-75
2021/09/03 02:36:56;;;;;;;83.55;26.92;;;11.30;99.90;;;9.96;100.00;102312.06;5051657;28;20067;-75
2021/09/03 02:39:22;;;;;;;87.10;25.88;;;11.30;99.90;;;9.92;100.00;102311.25;5043211;28;20079;-75
2021/09/03 02:41:48;;;;;;;93.32;28.45;;;11.20;99.90;;;9.88;100.00;102309.56;5042612;28;20499;-75
2021/09/03 02:44:14;;;;;;;89.82;27.10;;;11.20;99.90;;;9.84;100.00;102310.50;5039891;28;20049;-75
2021/09/03 02:46:40;;;;;;;88.03;25.52;;;11.10;99.90;;;9.78;100.00;102295.72;5044259;28;20020;-75
2021/09/03 02:49:09;;;;;;;76.20;25.23;;;11.10;99.90;;;9.73;100.00;102292.28;5024840;28;20058;-75
2021/09/03 02:51:35;;;;;;;79.22;24.90;;;11.10;99.90;;;9.72;100.00;102293.19;5035268;28;20561;-76
2021/09/03 02:54:02;;;;;;;77.13;23.55;;;11.10;99.90;;;9.72;100.00;102289.69;5050974;28;20059;-75
2021/09/03 02:56:28;;;;;;;83.05;25.70;;;11.00;99.90;;;9.68;100.00;102285.41;5052097;28;20050;-75
2021/09/03 02:58:54;;;;;;;75.95;26.65;;;11.10;99.90;;;9.72;100.00;102287.03;5049143;28;20596;-75
2021/09/03 03:01:19;;;;;;;79.45;25.17;;;11.10;99.90;;;9.75;100.00;102319.44;5041636;28;20124;-75
2021/09/03 03:03:45;;;;;;;73.03;25.73;;;11.10;99.90;;;9.78;100.00;102374.63;5042011;28;20427;-75
2021/09/03 03:06:11;;;;;;;83.22;26.33;;;11.10;99.90;;;9.78;100.00;102353.59;5025166;28;20116;-75
2021/09/03 03:08:37;;;;;;;83.13;26.85;;;11.10;99.90;;;9.80;100.00;102353.53;5031082;28;20070;-75
2021/09/03 03:11:04;;;;;;;80.38;25.33;;;11.10;99.90;;;9.79;100.00;102309.72;5034116;28;20108;-75
2021/09/03 03:13:30;;;;;;;76.47;26.05;;;11.10;99.90;;;9.71;100.00;102301.09;5044614;28;20079;-75
2021/09/03 03:15:57;;;;;;;75.10;24.88;;;11.00;99.90;;;9.60;100.00;102289.00;5038142;28;20101;-75
2021/09/03 03:18:23;;;;;;;74.65;25.85;;;10.90;99.90;;;9.54;100.00;102280.34;5040552;28;20443;-75
2021/09/03 03:20:51;;;;;;;76.28;24.90;;;10.90;99.90;;;9.50;100.00;102278.66;5042645;28;20136;-75
2021/09/03 03:23:17;;;;;;;84.22;25.27;;;10.80;99.90;;;9.50;100.00;102266.38;5004263;28;20060;-75
2021/09/03 03:25:44;;;;;;;72.18;23.00;;;10.80;99.90;;;9.44;100.00;102256.00;5034444;28;20064;-75
2021/09/03 03:28:11;;;;;;;78.38;24.77;;;10.80;99.90;;;9.40;100.00;102256.94;5035217;28;20150;-75
2021/09/03 03:30:37;;;;;;;81.57;25.02;;;10.80;99.90;;;9.43;100.00;102254.25;5041380;28;20086;-75
2021/09/03 03:33:03;;;;;;;78.95;24.20;;;10.80;99.90;;;9.41;100.00;102250.78;5030745;28;20121;-76
2021/09/03 03:35:30;;;;;;;80.38;24.90;;;10.80;99.90;;;9.43;100.00;102257.75;5032214;28;20050;-75
2021/09/03 03:37:56;;;;;;;70.68;23.90;;;10.80;99.90;;;9.40;100.00;102256.94;5032583;28;20067;-75
2021/09/03 03:40:22;;;;;;;79.57;24.35;;;10.80;99.90;;;9.36;100.00;102248.22;5033439;28;20114;-76
2021/09/03 03:42:48;;;;;;;69.55;25.10;;;10.70;99.90;;;9.37;100.00;102259.59;5041473;28;20090;-75
2021/09/03 03:45:14;;;;;;;84.80;25.38;;;10.80;99.90;;;9.39;100.00;102250.78;5039298;28;20036;-76
2021/09/03 03:47:40;;;;;;;80.18;25.98;;;10.80;99.90;;;9.46;100.00;102248.97;5049081;28;20081;-75
2021/09/03 03:50:08;;;;;;;81.30;25.27;;;10.80;99.90;;;9.52;100.00;102254.09;5040038;28;20059;-75
2021/09/03 03:52:37;;;;;;;72.88;25.60;;;10.90;99.90;;;9.67;100.00;102265.22;5042123;28;20129;-76
2021/09/03 03:55:04;;;;;;;83.97;26.92;;;11.10;99.90;;;9.76;100.00;102262.41;5041768;28;20519;-75
2021/09/03 03:57:31;;;;;;;97.95;27.77;;;11.10;99.90;;;9.78;100.00;102263.25;5016961;28;20111;-76
2021/09/03 03:59:57;;;;;;;98.47;27.92;;;11.10;99.90;;;9.81;100.00;102260.59;5039486;28;20079;-75
2021/09/03 04:02:23;;;;;;;93.13;28.05;;;11.20;99.90;;;9.81;100.00;102253.56;5050300;28;20059;-75
2021/09/03 04:04:49;;;;;;;97.65;27.48;;;11.10;99.90;;;9.81;100.00;102245.66;5034466;28;20065;-76
2021/09/03 04:07:15;;;;;;;81.63;26.98;;;11.10;99.90;;;9.74;100.00;102241.44;5015736;28;20388;-76
2021/09/03 04:09:43;;;;;;;98.07;25.65;;;11.00;99.90;;;9.65;100.00;102234.59;5049569;28;20067;-75
2021/09/03 04:12:09;;;;;;;92.07;27.20;;;11.00;99.90;;;9.60;100.00;102238.19;5032039;28;20526;-75
2021/09/03 04:14:37;;;;;;;87.50;25.13;;;10.90;99.90;;;9.62;100.00;102234.63;5032668;28;20525;-75
2021/09/03 04:17:03;;;;;;;94.20;26.95;;;11.00;99.90;;;9.67;100.00;102231.91;5042092;28;20070;-75
2021/09/03 04:19:29;;;;;;;94.35;26.70;;;11.10;99.90;;;9.74;100.00;102235.28;5031819;28;20113;-75
2021/09/03 04:21:55;;;;;;;100.70;27.15;;;11.10;99.90;;;9.73;100.00;102233.56;5051643;28;20522;-76
2021/09/03 04:24:21;;;;;;;86.55;25.65;;;11.10;99.90;;;9.72;100.00;102244.97;5038945;28;20465;-75
2021/09/03 04:26:47;;;;;;;92.32;26.77;;;11.10;99.90;;;9.71;100.00;102236.22;5033453;28;20140;-77
2021/09/03 04:29:13;;;;;;;102.65;26.67;;;11.00;99.90;;;9.71;100.00;102232.72;5023380;28;20538;-76
2021/09/03 04:31:39;;;;;;;98.18;25.90;;;11.00;99.90;;;9.69;100.00;102234.50;5041901;28;20020;-75
2021/09/03 04:34:05;;;;;;;92.15;25.77;;;11.10;99.90;;;9.72;100.00;102245.84;5033766;28;20029;-75
2021/09/03 04:36:31;;;;;;;91.97;25.65;;;11.10;99.90;;;9.74;100.00;102241.44;5056937;28;20027;-75
2021/09/03 04:38:57;;;;;;;92.00;26.25;;;11.10;99.90;;;9.78;100.00;102260.63;5039741;28;20399;-76
2021/09/03 04:41:23;;;;;;;95.05;26.27;;;11.10;99.90;;;9.77;100.00;102296.59;5040170;28;20090;-75
2021/09/03 04:43:51;;;;;;;80.63;25.38;;;9.80;99.90;;;9.79;100.00;102300.06;5024341;28;20074;-75
2021/09/03 04:46:20;;;;;;;100.18;25.77;;;11.10;99.90;;;9.81;100.00;102298.28;5033165;28;20163;-76
2021/09/03 04:48:46;;;;;;;86.18;25.30;;;11.20;99.90;;;9.86;100.00;102292.94;5030301;28;20160;-75
2021/09/03 04:51:12;;;;;;;89.03;25.38;;;11.20;99.90;;;9.91;100.00;102321.78;5049928;28;20507;-75
2021/09/03 04:53:38;;;;;;;84.57;25.80;;;11.20;99.90;;;9.92;100.00;102303.34;5039874;28;20060;-75
2021/09/03 04:56:04;;;;;;;81.00;24.60;;;11.20;99.90;;;9.96;100.00;102405.03;5039050;28;20081;-75
2021/09/03 04:58:32;;;;;;;75.63;24.48;;;11.30;99.90;;;9.98;100.00;102347.97;5019435;28;20093;-76
2021/09/03 05:00:58;;;;;;;84.95;23.73;;;11.30;99.90;;;10.09;100.00;102352.19;5030459;28;20071;-75
2021/09/03 05:03:24;;;;;;;89.40;25.02;;;11.40;99.90;;;10.22;100.00;102336.09;5040702;28;20024;-75
2021/09/03 05:05:50;;;;;;;80.15;25.00;;;11.60;99.90;;;10.31;100.00;102358.78;5042643;28;20332;-76
2021/09/03 05:08:16;;;;;;;87.38;25.55;;;11.70;99.90;;;10.40;100.00;102363.00;5028430;28;20040;-76
2021/09/03 05:10:45;;;;;;;90.82;25.30;;;11.70;99.90;;;10.50;100.00;102419.00;5022819;28;20573;-75
2021/09/03 05:13:11;;;;;;;96.18;26.45;;;11.80;99.90;;;10.59;100.00;102437.25;5020721;28;20020;-76
2021/09/03 05:15:41;;;;;;;80.45;25.00;;;11.90;99.90;;;10.68;100.00;102459.00;5034035;28;20066;-76
2021/09/03 05:18:07;;;;;;;96.13;24.52;;;12.00;99.90;;;10.83;100.00;102518.47;5010272;28;20429;-75
2021/09/03 05:20:33;;;;;;;96.82;24.90;;;12.20;99.90;;;10.92;100.00;102561.34;5046028;28;20457;-75
2021/09/03 05:22:59;;;;;;;95.97;24.85;;;12.20;99.90;;;10.97;100.00;102630.66;5040236;28;20113;-76
2021/09/03 05:25:26;;;;;;;102.60;25.63;;;12.20;99.90;;;10.96;100.00;102652.66;5028894;28;20060;-75
2021/09/03 05:27:52;;;;;;;100.55;27.05;;;12.30;99.90;;;10.99;100.00;102684.22;5009467;28;20201;-75
2021/09/03 05:30:18;;;;;;;100.75;26.50;;;12.30;99.90;;;11.05;100.00;102735.06;5031480;28;20036;-75
2021/09/03 05:32:44;;;;;;;89.30;26.52;;;12.30;99.90;;;11.10;100.00;102782.47;5047132;28;20499;-75
2021/09/03 05:35:11;;;;;;;77.30;24.40;;;12.40;99.90;;;11.16;100.00;102853.53;5032246;28;20461;-75
2021/09/03 05:37:40;;;;;;;96.15;26.85;;;12.50;99.90;;;11.14;100.00;102870.28;5039652;28;20439;-75
2021/09/03 05:40:08;;;;;;;88.85;25.70;;;12.40;99.90;;;11.08;100.00;102939.81;5048007;28;21191;-75
2021/09/03 05:42:34;;;;;;;86.95;25.17;;;12.30;99.90;;;11.00;100.00;102925.84;5030966;28;20069;-75
2021/09/03 05:45:02;;;;;;;86.38;26.17;;;12.30;99.90;;;10.98;100.00;102960.13;5049728;28;20027;-76
2021/09/03 05:47:28;;;;;;;83.38;25.58;;;12.30;99.90;;;11.03;100.00;102958.31;5063290;28;20033;-75
2021/09/03 05:49:58;;;;;;;89.45;25.63;;;12.40;99.90;;;11.17;100.00;103004.75;5051916;28;20055;-75
2021/09/03 05:52:24;;;;;;;80.72;25.35;;;12.40;99.90;;;11.18;100.00;103020.50;5051832;28;20462;-75
2021/09/03 05:54:51;;;;;;;76.25;22.00;;;12.50;99.90;;;11.20;100.00;103054.78;5026452;28;20066;-76
2021/09/03 05:57:16;;;;;;;68.82;22.58;;;12.40;99.90;;;11.15;100.00;103054.84;5037812;28;20029;-75
2021/09/03 05:59:43;;;;;;;78.10;22.40;;;12.40;99.90;;;11.16;100.00;103085.59;5060266;28;20117;-75
2021/09/03 06:02:09;;;;;;;77.85;22.50;;;12.40;99.90;;;11.17;100.00;103184.06;5033172;28;20116;-75
2021/09/03 06:04:35;;;;;;;72.43;22.42;;;12.50;99.90;;;11.18;100.00;103199.84;5033470;28;20465;-75
2021/09/03 06:07:03;;;;;;;64.85;22.20;;;12.50;99.90;;;11.15;100.00;103172.66;5034564;28;20083;-75
2021/09/03 06:09:29;;;;;;;61.85;20.80;;;12.50;99.90;;;11.17;100.00;103174.38;5024028;28;20023;-75
2021/09/03 06:11:55;;;;;;;58.83;20.23;;;12.60;99.90;;;11.24;100.00;103226.16;5051216;28;20024;-75
2021/09/03 06:14:22;;;;;;;69.75;20.83;;;12.60;99.90;;;11.31;100.00;103237.50;5019372;28;20138;-75
2021/09/03 06:16:48;;;;;;;59.95;19.02;;;12.60;99.90;;;11.22;100.00;103238.47;5050468;28;20036;-75
2021/09/03 06:19:17;;;;;;;71.03;21.63;;;12.60;99.90;;;11.28;100.00;103283.25;5051548;28;21607;-75
2021/09/03 06:21:43;;;;;;;48.00;17.70;;;12.60;99.90;;;11.38;100.00;103317.47;5025879;28;20063;-75
2021/09/03 06:24:28;;;;;;;59.30;17.73;;;12.70;99.90;;;11.31;100.00;103305.22;5050225;28;20396;-75
2021/09/03 06:27:09;;;;;;;54.95;18.75;;;12.60;99.90;;;11.37;100.00;103326.28;5049619;28;20023;-75
2021/09/03 06:29:42;;;;;;;50.65;17.83;;;12.70;99.90;;;11.35;100.00;103335.97;5026543;28;20103;-75
2021/09/03 06:32:11;;;;;;;53.67;19.02;;;12.70;99.90;;;11.42;100.00;103322.69;5050642;28;20554;-75
2021/09/03 06:34:46;;;;;;;57.78;21.02;;;12.80;99.90;;;11.53;100.00;103377.16;5052546;28;20033;-75
2021/09/03 06:37:13;;;;;;;50.45;19.17;;;12.80;99.90;;;11.63;100.00;103418.41;5039428;28;20422;-75
2021/09/03 06:39:40;;;;;;;59.20;20.25;;;12.90;99.90;;;11.61;100.00;103425.47;5045202;28;20048;-75
2021/09/03 06:42:08;;;;;;;65.72;21.05;;;12.90;99.90;;;11.57;100.00;103456.28;5031245;28;20063;-75
2021/09/03 06:44:35;;;;;;;52.53;18.75;;;12.90;99.90;;;11.62;100.00;103466.78;5041840;28;20029;-76
2021/09/03 06:47:03;;;;;;;57.72;19.92;;;13.00;99.90;;;11.72;100.00;103486.97;5051959;28;20024;-75
2021/09/03 06:49:30;;;;;;;50.42;19.38;;;13.00;99.90;;;11.72;100.00;103470.25;5040859;28;20032;-75
2021/09/03 06:51:56;;;;;;;46.50;17.52;;;13.10;99.90;;;11.78;100.00;103332.94;5042129;28;20120;-75
2021/09/03 06:54:23;;;;;;;50.70;19.13;;;13.10;99.90;;;11.79;100.00;103316.19;5049408;28;20065;-75
2021/09/03 06:56:50;;;;;;;44.70;18.23;;;13.10;99.90;;;11.83;100.00;103307.34;5050230;28;21423;-75
2021/09/03 06:59:16;;;;;;;53.10;19.73;;;13.20;99.90;;;11.92;100.00;103324.91;5040790;28;20043;-76
2021/09/03 07:01:42;;;;;;;47.83;18.95;;;13.30;99.90;;;12.08;100.00;103319.44;5033916;28;20028;-75
2021/09/03 07:04:08;;;;;;;51.90;19.63;;;13.40;99.90;;;12.21;100.00;103321.94;5034738;28;20077;-75
2021/09/03 07:06:35;;;;;;;47.65;18.38;;;13.40;99.90;;;12.17;100.00;103307.88;5030116;28;20085;-75
2021/09/03 07:09:04;;;;;;;50.05;18.98;;;13.60;99.90;;;12.35;100.00;103345.53;5049803;28;20414;-75
2021/09/03 07:11:31;;;;;;;47.03;16.88;;;13.60;99.90;;;12.46;100.00;103338.34;5042840;28;20046;-75
2021/09/03 07:13:58;;;;;;;40.92;17.13;;;13.80;99.90;;;12.61;100.00;103338.16;5043122;28;20040;-75
2021/09/03 07:16:25;;;;;;;42.63;17.10;;;13.90;99.90;;;12.75;100.00;103340.59;5049596;28;20094;-75
2021/09/03 07:18:51;;;;;;;46.50;16.05;;;14.00;99.90;;;12.76;100.00;103333.53;5050484;28;20036;-75
2021/09/03 07:21:18;;;;;;;41.53;17.23;;;14.10;99.90;;;12.89;100.00;103338.66;5049552;28;20041;-75
2021/09/03 07:23:44;;;;;;;35.63;15.80;;;14.10;99.90;;;12.88;100.00;103331.59;5046029;28;20043;-75
2021/09/03 07:26:10;;;;;;;41.88;15.38;;;14.20;99.90;;;13.00;100.00;103340.22;5041814;28;20464;-75
2021/09/03 07:28:36;;;;;;;35.50;14.70;;;14.20;99.90;;;12.93;100.00;103323.59;5041422;28;20040;-75
2021/09/03 07:31:02;;;;;;;32.50;14.70;;;14.20;99.90;;;13.01;100.00;103318.19;5048650;28;20104;-75
2021/09/03 07:33:28;;;;;;;47.55;15.80;;;14.30;99.90;;;12.95;100.00;103305.06;5046860;28;20028;-77
2021/09/03 07:35:54;;;;;;;34.55;15.30;;;14.30;99.90;;;12.98;100.00;103295.31;5022570;28;20032;-78
2021/09/03 07:38:21;;;;;;;38.53;15.07;;;14.40;99.90;;;13.08;100.00;103302.19;5032402;28;20429;-77
2021/09/03 07:40:47;;;;;;;33.63;15.38;;;14.40;99.90;;;13.20;100.00;103316.13;5049346;28;20072;-83
2021/09/03 07:43:13;;;;;;;29.65;14.55;;;14.50;99.90;;;13.21;100.00;103302.00;5022672;28;20033;-77
2021/09/03 07:45:42;;;;;;;34.60;15.40;;;14.50;99.90;;;13.36;100.00;103312.34;5032151;28;20021;-76
2021/09/03 07:48:10;;;;;;;41.60;16.13;;;14.70;99.90;;;13.56;100.00;103330.53;5042367;28;20036;-77
2021/09/03 07:50:36;;;;;;;33.25;15.65;;;14.60;99.90;;;13.49;100.00;103297.13;5039033;28;20033;-76
2021/09/03 07:53:05;;;;;;;29.60;13.77;;;14.80;99.90;;;13.78;100.00;103314.25;5015438;28;20112;-76
2021/09/03 07:55:33;;;;;;;39.95;14.98;;;15.00;99.90;;;13.91;100.00;103316.66;5033163;28;20102;-76
2021/09/03 07:57:59;;;;;;;32.00;14.07;;;15.20;99.90;;;14.03;100.00;103318.16;5039527;28;20039;-76
2021/09/03 08:00:25;;;;;;;32.63;13.38;;;15.20;99.90;;;14.03;100.00;103309.34;5041500;28;20040;-76
2021/09/03 08:02:51;;;;;;;29.67;12.95;;;15.30;99.90;;;13.97;100.00;103293.59;5042259;28;20032;-76
2021/09/03 08:05:18;;;;;;;27.83;13.10;;;15.30;99.90;;;14.05;100.00;103292.53;5039203;28;20021;-76
2021/09/03 08:07:44;;;;;;;28.75;12.57;;;15.30;99.90;;;13.85;100.00;103262.94;5033736;28;20040;-76
2021/09/03 08:10:16;;;;;;;29.08;12.30;;;15.20;99.90;;;13.92;100.00;103277.78;5040096;28;20028;-76
2021/09/03 08:12:42;;;;;;;25.38;12.15;;;15.30;99.90;;;14.07;100.00;103282.75;5011442;28;20089;-76
2021/09/03 08:15:11;;;;;;;31.00;12.45;;;15.40;99.90;;;14.13;100.00;103287.94;5034026;28;20034;-76
2021/09/03 08:17:37;;;;;;;24.55;11.27;;;15.40;99.90;;;14.18;100.00;103279.91;5039916;28;20148;-76
2021/09/03 08:20:07;;;;;;;28.05;11.30;;;15.50;99.90;;;14.28;100.00;103289.41;5040685;28;20563;-76
2021/09/03 08:22:33;;;;;;;29.70;11.18;;;15.50;99.90;;;14.09;99.85;103238.56;5027695;28;20484;-77
2021/09/03 08:24:59;;;;;;;34.22;10.70;;;15.50;99.90;;;14.14;99.61;103244.63;5017902;28;20443;-76
2021/09/03 08:27:25;;;;;;;30.70;10.60;;;15.40;99.90;;;14.12;99.72;103235.88;5016988;28;20582;-76
2021/09/03 08:29:52;;;;;;;25.30;9.93;;;15.50;99.90;;;14.25;100.00;103259.44;5029861;28;20025;-76
2021/09/03 08:32:18;;;;;;;22.35;10.10;;;15.40;99.90;;;14.09;98.25;103241.22;5047209;28;20562;-76
2021/09/03 08:34:46;;;;;;;25.73;9.85;;;15.40;99.90;;;14.08;98.18;103223.59;5065736;28;20481;-76
2021/09/03 08:37:12;;;;;;;28.25;10.57;;;15.30;99.90;;;13.99;98.65;103210.53;5041573;28;20049;-76
2021/09/03 08:39:39;;;;;;;24.13;10.82;;;15.30;99.90;;;14.07;98.63;103224.47;5047913;28;21912;-76
2021/09/03 08:42:06;;;;;;;27.95;9.82;;;15.30;99.90;;;14.11;98.61;103223.50;5030176;28;20024;-76
2021/09/03 08:44:33;;;;;;;27.17;10.52;;;15.50;99.90;;;14.20;98.17;103227.75;5017042;28;20036;-76
2021/09/03 08:47:02;;;;;;;26.63;10.82;;;15.40;99.90;;;14.24;98.08;103234.72;5047904;28;20112;-76
2021/09/03 08:49:28;;;;;;;31.67;9.95;;;15.60;99.90;;;14.41;97.54;103250.25;5031514;28;20450;-76
2021/09/03 08:51:56;;;;;;;26.58;9.73;;;15.60;99.90;;;14.34;97.41;103235.38;5038164;28;20036;-76
2021/09/03 08:54:22;;;;;;;29.38;9.73;;;15.60;99.90;;;14.44;97.58;103236.06;5039516;28;20130;-76
2021/09/03 08:56:48;;;;;;;21.08;9.63;;;15.70;99.90;;;14.45;97.05;103225.41;5038361;28;20033;-77
2021/09/03 08:59:15;;;;;;;24.67;10.23;;;15.80;99.90;;;14.66;96.32;103244.41;5039776;28;20438;-76
2021/09/03 09:01:44;;;;;;;23.90;10.10;;;15.90;99.90;;;14.72;94.95;103245.13;5023357;28;20052;-76
2021/09/03 09:04:21;;;;;;;27.52;11.13;;;15.90;99.90;;;14.58;95.25;103236.66;4991696;28;20055;-76
2021/09/03 09:07:04;;;;;;;23.15;9.48;;;15.90;99.90;;;14.73;95.08;103251.31;4991283;28;20384;-76
2021/09/03 09:09:41;;;;;;;25.75;10.07;;;16.10;99.90;;;15.01;95.43;103269.19;5015125;28;20037;-76
2021/09/03 09:12:22;;;;;;;;;;;16.20;99.90;;;15.18;93.58;103283.81;5000386;28;20020;-77
2021/09/03 09:15:10;;;;;;;24.65;9.82;;;16.60;99.90;;;15.57;92.06;103309.31;5016462;28;20404;-77
2021/09/03 09:17:43;;;;;;;25.83;9.57;;;16.80;99.90;;;15.68;91.29;103309.03;4998293;28;20061;-77
2021/09/03 09:20:24;;;;;;;29.80;10.65;;;16.70;99.90;;;15.47;90.87;103273.34;5009025;28;20040;-77
2021/09/03 09:23:02;;;;;;;23.35;9.45;;;16.80;99.90;;;15.77;92.06;103304.41;5007010;28;20037;-77
2021/09/03 09:25:34;;;;;;;22.55;9.70;;;17.00;99.90;;;15.85;90.84;103298.00;5002095;28;20499;-76
2021/09/03 09:28:22;;;;;;;20.30;9.60;;;17.10;99.90;;;15.78;89.67;103348.63;4989675;28;20135;-76
2021/09/03 09:30:50;;;;;;;24.20;9.13;;;17.00;99.90;;;15.68;91.14;103242.63;5009244;28;20089;-76
2021/09/03 09:33:35;;;;;;;28.10;9.35;;;17.00;99.90;;;15.71;89.81;103181.47;4991742;28;20051;-76
2021/09/03 09:36:07;;;;;;;26.70;9.55;;;17.10;99.90;;;15.77;90.59;103317.69;5021371;28;20035;-76
2021/09/03 09:38:48;;;;;;;20.13;8.73;;;17.20;99.90;;;16.09;91.22;103156.44;5014695;28;20051;-77
2021/09/03 09:41:25;;;;;;;24.30;9.60;;;17.30;99.90;;;16.02;88.97;103085.78;5030652;28;20491;-76
2021/09/03 09:43:53;;;;;;;20.20;8.10;;;17.50;99.90;;;16.50;89.18;103122.34;5021825;28;20035;-76
2021/09/03 09:46:23;;;;;;;22.88;8.70;;;17.80;99.90;;;16.80;86.80;103116.91;4982591;28;20048;-77
2021/09/03 09:48:52;;;;;;;19.55;8.45;;;18.00;99.90;;;16.80;85.91;103095.63;5058055;28;20040;-76
2021/09/03 09:51:37;;;;;;;22.52;8.55;;;18.40;99.90;;;17.66;83.86;103164.38;5018627;28;20043;-77
2021/09/03 09:54:20;;;;;;;22.25;8.80;;;18.70;99.90;;;17.30;83.15;103087.59;4992769;28;20032;-77
2021/09/03 09:57:08;;;;;;;20.30;8.82;;;18.30;99.90;;;17.20;83.42;103094.19;4996253;28;20116;-76
2021/09/03 09:59:37;;;;;;;18.60;8.27;;;18.40;99.90;;;16.93;82.97;103043.72;4978864;28;20044;-77